Time;durP1;ratioP1;P1;durP2;ratioP2;P2;SDS_P1;SDS_P2;PMS_P1;PMS_P2;Temp;Humidity;BMP_temperature;BMP_pressure;BME280_temperature;BME280_humidity;BME280_pressure;Samples;Min_cycle;Max_cycle;Signal;HPM_P1;HPM_P2
2021/03/19 00:00:21;;;;;;;10.55;1.77;;;;;;;;;;4972074;28;20088;-50
2021/03/19 00:02:48;;;;;;;9.13;2.00;;;;;;;;;;4976838;28;20041;-47
2021/03/19 00:05:16;;;;;;;17.83;2.33;;;;;;;;;;4973176;28;20402;-46
2021/03/19 00:07:47;;;;;;;22.25;2.35;;;;;;;;;;4975718;28;20447;-47
2021/03/19 00:10:20;;;;;;;23.70;2.97;;;;;;;;;;4972901;28;20031;-47
2021/03/19 00:12:47;;;;;;;18.95;3.78;;;;;;;;;;4958578;28;20041;-50
2021/03/19 00:15:15;;;;;;;16.27;2.63;;;;;;;;;;4978093;28;20134;-48
2021/03/19 00:17:43;;;;;;;23.00;3.17;;;;;;;;;;4981993;28;20015;-48
2021/03/19 00:20:10;;;;;;;18.75;3.20;;;;;;;;;;4984294;28;20085;-49
2021/03/19 00:22:38;;;;;;;17.50;2.80;;;;;;;;;;4988240;28;20037;-49
2021/03/19 00:25:06;;;;;;;18.95;2.65;;;;;;;;;;4985217;28;20018;-50
2021/03/19 00:27:33;;;;;;;19.77;3.28;;;;;;;;;;4981239;28;20038;-51
2021/03/19 00:30:01;;;;;;;28.30;3.60;;;;;;;;;;4979338;28;20099;-52
2021/03/19 00:32:28;;;;;;;26.67;3.00;;;;;;;;;;4982600;28;20035;-52
2021/03/19 00:34:55;;;;;;;20.05;2.75;;;;;;;;;;4988023;28;20039;-47
2021/03/19 00:37:22;;;;;;;23.35;3.25;;;;;;;;;;4979929;28;20014;-49
2021/03/19 00:39:49;;;;;;;23.40;3.28;;;;;;;;;;4985940;28;20027;-48
2021/03/19 00:42:16;;;;;;;26.67;3.28;;;;;;;;;;4982252;28;20046;-48
2021/03/19 00:44:45;;;;;;;23.25;3.00;;;;;;;;;;4986420;28;20117;-49
2021/03/19 00:47:12;;;;;;;22.70;3.67;;;;;;;;;;4979781;28;20049;-50
2021/03/19 00:49:39;;;;;;;31.10;3.33;;;;;;;;;;4984210;28;20579;-53
2021/03/19 00:52:06;;;;;;;29.55;3.55;;;;;;;;;;4984504;28;20450;-53
2021/03/19 00:54:33;;;;;;;24.10;3.75;;;;;;;;;;4983957;28;20050;-49
2021/03/19 00:57:00;;;;;;;23.83;4.50;;;;;;;;;;4987204;28;20019;-49
2021/03/19 00:59:27;;;;;;;21.38;4.32;;;;;;;;;;4987742;28;20027;-52
2021/03/19 01:01:54;;;;;;;22.42;3.92;;;;;;;;;;4983780;28;20019;-51
2021/03/19 01:04:21;;;;;;;32.60;5.45;;;;;;;;;;4983897;28;20018;-49
2021/03/19 01:06:48;;;;;;;25.52;5.32;;;;;;;;;;4985549;28;20390;-53
2021/03/19 01:09:15;;;;;;;17.77;4.75;;;;;;;;;;4980855;28;20023;-50
2021/03/19 01:11:42;;;;;;;23.77;4.53;;;;;;;;;;4984600;28;20029;-51
2021/03/19 01:14:09;;;;;;;18.48;4.40;;;;;;;;;;4980990;28;20442;-49
2021/03/19 01:16:36;;;;;;;16.77;4.40;;;;;;;;;;4980463;28;20018;-52
2021/03/19 01:19:04;;;;;;;18.38;4.50;;;;;;;;;;4972011;28;20023;-51
2021/03/19 01:21:31;;;;;;;15.95;4.28;;;;;;;;;;4969974;28;20077;-47
2021/03/19 01:23:58;;;;;;;19.20;4.80;;;;;;;;;;4985106;28;20375;-51
2021/03/19 01:26:25;;;;;;;17.48;4.95;;;;;;;;;;4965283;28;20049;-49
2021/03/19 01:28:52;;;;;;;21.40;4.63;;;;;;;;;;4981436;28;20030;-50
2021/03/19 01:31:19;;;;;;;18.95;4.38;;;;;;;;;;4969010;28;20042;-48
2021/03/19 01:33:46;;;;;;;19.13;4.20;;;;;;;;;;4983678;28;20411;-49
2021/03/19 01:36:13;;;;;;;18.55;4.57;;;;;;;;;;4964014;28;20034;-54
2021/03/19 01:38:41;;;;;;;21.95;4.38;;;;;;;;;;4976366;28;20059;-52
2021/03/19 01:41:08;;;;;;;30.73;4.65;;;;;;;;;;4977881;28;20039;-52
2021/03/19 01:43:54;;;;;;;20.38;4.85;;;;;;;;;;4966409;28;20019;-54
2021/03/19 01:46:39;;;;;;;19.88;4.15;;;;;;;;;;4986466;28;20047;-52
2021/03/19 01:49:25;;;;;;;21.60;4.25;;;;;;;;;;4985164;28;20073;-57
2021/03/19 01:52:11;;;;;;;19.85;3.78;;;;;;;;;;4987622;28;20033;-54
2021/03/19 01:54:58;;;;;;;19.00;3.33;;;;;;;;;;4983636;28;20160;-56
2021/03/19 01:57:43;;;;;;;37.08;5.05;;;;;;;;;;4989987;28;20533;-57
2021/03/19 02:00:29;;;;;;;27.20;3.83;;;;;;;;;;4979931;28;20029;-56
2021/03/19 02:03:14;;;;;;;22.88;3.80;;;;;;;;;;4985320;28;20449;-57
2021/03/19 02:05:59;;;;;;;30.65;4.15;;;;;;;;;;4984993;28;20386;-51
2021/03/19 02:08:44;;;;;;;18.65;3.58;;;;;;;;;;4986551;28;20471;-52
2021/03/19 02:11:29;;;;;;;18.08;3.67;;;;;;;;;;4986605;28;20026;-53
2021/03/19 02:14:15;;;;;;;16.27;3.75;;;;;;;;;;4991300;28;20433;-53
2021/03/19 02:17:00;;;;;;;14.27;3.45;;;;;;;;;;4983831;28;20053;-57
2021/03/19 02:19:45;;;;;;;15.90;3.20;;;;;;;;;;4984182;28;20026;-52
2021/03/19 02:22:30;;;;;;;16.55;3.28;;;;;;;;;;4987537;28;20030;-49
2021/03/19 02:25:15;;;;;;;13.65;3.40;;;;;;;;;;4986803;28;20030;-51
2021/03/19 02:28:00;;;;;;;18.88;3.35;;;;;;;;;;4990783;28;20026;-50
2021/03/19 02:30:45;;;;;;;16.77;3.15;;;;;;;;;;4991962;28;20080;-50
2021/03/19 02:33:13;;;;;;;14.13;3.40;;;;;;;;;;4982614;28;20096;-50
2021/03/19 02:35:51;;;;;;;16.88;3.20;;;;;;;;;;4992703;28;20034;-48
2021/03/19 02:38:18;;;;;;;15.38;3.33;;;;;;;;;;4993575;28;20390;-46
2021/03/19 02:40:45;;;;;;;20.83;3.25;;;;;;;;;;4993279;28;20125;-49
2021/03/19 02:43:13;;;;;;;16.23;2.90;;;;;;;;;;4993306;28;20109;-52
2021/03/19 02:45:39;;;;;;;18.60;2.78;;;;;;;;;;4993988;28;20268;-55
2021/03/19 02:48:07;;;;;;;14.65;2.70;;;;;;;;;;4994075;28;20026;-55
2021/03/19 02:50:34;;;;;;;17.05;2.78;;;;;;;;;;4992528;28;20050;-53
2021/03/19 02:53:01;;;;;;;14.32;2.45;;;;;;;;;;4993769;28;20069;-54
2021/03/19 02:55:28;;;;;;;12.43;2.80;;;;;;;;;;4992989;28;20067;-55
2021/03/19 02:57:55;;;;;;;17.10;2.78;;;;;;;;;;4975246;28;20026;-54
2021/03/19 03:00:23;;;;;;;11.60;2.45;;;;;;;;;;4994158;28;20474;-52
2021/03/19 03:02:51;;;;;;;12.65;2.83;;;;;;;;;;4993817;28;20034;-50
2021/03/19 03:05:18;;;;;;;15.70;2.88;;;;;;;;;;4994111;28;20467;-50
2021/03/19 03:07:45;;;;;;;12.50;2.90;;;;;;;;;;4991743;28;20034;-53
2021/03/19 03:10:14;;;;;;;13.30;2.50;;;;;;;;;;4994008;28;20019;-49
2021/03/19 03:12:41;;;;;;;10.50;2.85;;;;;;;;;;4993756;28;20382;-52
2021/03/19 03:15:11;;;;;;;14.55;2.53;;;;;;;;;;4994131;28;20508;-54
2021/03/19 03:17:38;;;;;;;10.80;2.42;;;;;;;;;;4994400;28;20027;-53
2021/03/19 03:20:16;;;;;;;8.80;2.58;;;;;;;;;;4994306;28;20025;-52
2021/03/19 03:22:43;;;;;;;15.45;2.80;;;;;;;;;;4994157;28;20018;-52
2021/03/19 03:25:23;;;;;;;11.75;2.53;;;;;;;;;;4994476;28;20014;-52
2021/03/19 03:27:50;;;;;;;11.48;2.42;;;;;;;;;;4994276;28;20033;-53
2021/03/19 03:30:26;;;;;;;9.63;2.13;;;;;;;;;;4994093;28;20021;-55
2021/03/19 03:32:54;;;;;;;8.48;2.35;;;;;;;;;;4993957;28;20030;-51
2021/03/19 03:35:21;;;;;;;9.30;2.10;;;;;;;;;;4993803;28;20137;-54
2021/03/19 03:37:48;;;;;;;9.30;1.90;;;;;;;;;;4994076;28;20452;-51
2021/03/19 03:40:17;;;;;;;7.63;1.85;;;;;;;;;;4993884;28;20054;-55
2021/03/19 03:42:44;;;;;;;9.90;2.17;;;;;;;;;;4993806;28;20027;-55
2021/03/19 03:45:12;;;;;;;10.65;2.25;;;;;;;;;;4988561;28;20026;-51
2021/03/19 03:47:39;;;;;;;6.28;2.08;;;;;;;;;;4992244;28;20105;-49
2021/03/19 03:50:08;;;;;;;8.45;2.00;;;;;;;;;;4991716;28;20050;-52
2021/03/19 03:52:35;;;;;;;8.18;2.00;;;;;;;;;;4992807;28;20065;-52
2021/03/19 03:55:03;;;;;;;10.32;2.10;;;;;;;;;;4992689;28;20038;-51
2021/03/19 03:57:30;;;;;;;7.65;1.95;;;;;;;;;;4992832;28;20031;-49
2021/03/19 03:59:57;;;;;;;7.78;2.05;;;;;;;;;;4993363;28;20022;-50
2021/03/19 04:02:26;;;;;;;8.02;2.08;;;;;;;;;;4992502;28;20006;-52
2021/03/19 04:04:54;;;;;;;6.65;2.10;;;;;;;;;;4992584;28;20027;-51
2021/03/19 04:07:33;;;;;;;9.25;2.40;;;;;;;;;;4992444;28;20022;-50
2021/03/19 04:10:00;;;;;;;7.82;1.90;;;;;;;;;;4987263;28;20022;-48
2021/03/19 04:12:27;;;;;;;5.80;2.10;;;;;;;;;;4991568;28;20493;-48
2021/03/19 04:14:54;;;;;;;6.97;1.73;;;;;;;;;;4992646;28;20082;-52
2021/03/19 04:17:26;;;;;;;8.50;2.03;;;;;;;;;;4991943;28;20021;-52
2021/03/19 04:19:53;;;;;;;11.73;2.13;;;;;;;;;;4992533;28;20022;-51
2021/03/19 04:22:21;;;;;;;6.82;1.92;;;;;;;;;;4991685;28;20069;-50
2021/03/19 04:24:48;;;;;;;6.65;1.88;;;;;;;;;;4992378;28;20124;-52
2021/03/19 04:27:20;;;;;;;7.10;2.35;;;;;;;;;;4992864;28;20045;-49
2021/03/19 04:29:47;;;;;;;4.15;1.35;;;;;;;;;;4992228;28;20030;-50
2021/03/19 04:32:16;;;;;;;5.15;1.75;;;;;;;;;;4992254;28;20011;-49
2021/03/19 04:34:43;;;;;;;5.60;1.60;;;;;;;;;;4991619;28;20034;-52
2021/03/19 04:37:11;;;;;;;6.10;1.70;;;;;;;;;;4992497;28;20077;-55
2021/03/19 04:39:41;;;;;;;6.57;1.80;;;;;;;;;;4991869;28;20506;-50
2021/03/19 04:42:08;;;;;;;6.38;1.90;;;;;;;;;;4992115;28;20471;-50
2021/03/19 04:44:37;;;;;;;5.50;1.50;;;;;;;;;;4991500;28;20533;-52
2021/03/19 04:47:05;;;;;;;5.82;1.85;;;;;;;;;;4991940;28;20110;-51
2021/03/19 04:49:32;;;;;;;5.05;1.58;;;;;;;;;;4991398;28;20112;-50
2021/03/19 04:52:00;;;;;;;5.40;1.75;;;;;;;;;;4992214;28;20102;-55
2021/03/19 04:54:27;;;;;;;5.03;1.60;;;;;;;;;;4991339;28;20045;-54
2021/03/19 04:56:54;;;;;;;6.68;1.60;;;;;;;;;;4992388;28;20030;-50
2021/03/19 04:59:21;;;;;;;5.95;1.85;;;;;;;;;;4991576;28;20037;-53
2021/03/19 05:01:49;;;;;;;7.53;1.88;;;;;;;;;;4992104;28;20474;-51
2021/03/19 05:04:17;;;;;;;5.35;1.50;;;;;;;;;;4991236;28;20433;-50
2021/03/19 05:06:44;;;;;;;3.97;1.42;;;;;;;;;;4992119;28;20367;-50
2021/03/19 05:09:11;;;;;;;4.95;1.88;;;;;;;;;;4992033;28;20537;-50
2021/03/19 05:11:38;;;;;;;4.00;1.17;;;;;;;;;;4991648;28;20462;-51
2021/03/19 05:14:05;;;;;;;6.45;1.30;;;;;;;;;;4991506;28;20505;-52
2021/03/19 05:16:32;;;;;;;6.32;1.50;;;;;;;;;;4991611;28;20053;-51
2021/03/19 05:18:59;;;;;;;5.43;1.33;;;;;;;;;;4991897;28;20023;-53
2021/03/19 05:21:26;;;;;;;6.00;1.60;;;;;;;;;;4991287;28;20042;-50
2021/03/19 05:23:54;;;;;;;6.50;1.40;;;;;;;;;;4991685;28;20541;-51
2021/03/19 05:26:21;;;;;;;8.60;1.65;;;;;;;;;;4991487;28;20561;-52
2021/03/19 05:28:48;;;;;;;3.45;1.67;;;;;;;;;;4991680;28;20034;-51
2021/03/19 05:31:15;;;;;;;5.03;1.42;;;;;;;;;;4991546;28;20049;-50
2021/03/19 05:33:44;;;;;;;4.65;1.25;;;;;;;;;;4991605;28;20027;-50
2021/03/19 05:36:11;;;;;;;4.93;1.30;;;;;;;;;;4991972;28;20026;-54
2021/03/19 05:38:38;;;;;;;4.97;1.33;;;;;;;;;;4991267;28;20359;-49
2021/03/19 05:41:06;;;;;;;4.43;1.48;;;;;;;;;;4991703;28;20483;-54
2021/03/19 05:43:35;;;;;;;4.03;1.20;;;;;;;;;;4991084;28;20483;-53
2021/03/19 05:46:06;;;;;;;5.85;1.83;;;;;;;;;;4991514;28;20516;-53
2021/03/19 05:48:40;;;;;;;4.80;1.20;;;;;;;;;;4990789;28;20105;-50
2021/03/19 05:51:16;;;;;;;6.45;1.10;;;;;;;;;;4990000;28;20058;-54
2021/03/19 05:53:44;;;;;;;2.88;1.35;;;;;;;;;;4990796;28;20022;-51
2021/03/19 05:56:16;;;;;;;4.00;1.20;;;;;;;;;;4991721;28;20026;-52
2021/03/19 05:58:43;;;;;;;2.88;1.10;;;;;;;;;;4990970;28;20035;-52
2021/03/19 06:01:11;;;;;;;3.95;1.30;;;;;;;;;;4991486;28;20088;-49
2021/03/19 06:03:39;;;;;;;2.97;1.05;;;;;;;;;;4991078;28;20030;-54
2021/03/19 06:06:08;;;;;;;2.45;1.10;;;;;;;;;;4991163;28;20026;-51
2021/03/19 06:08:37;;;;;;;4.00;1.13;;;;;;;;;;4990823;28;20030;-52
2021/03/19 06:11:06;;;;;;;3.60;1.33;;;;;;;;;;4991666;28;20019;-50
2021/03/19 06:16:33;;;;;;;5.97;1.40;;;;;;;;;;5083269;22;20124;-51
2021/03/19 06:19:02;;;;;;;2.00;0.77;;;;;;;;;;5010653;28;20022;-50
2021/03/19 06:21:37;;;;;;;4.68;1.45;;;;;;;;;;5010393;28;20113;-48
2021/03/19 06:24:04;;;;;;;5.72;1.15;;;;;;;;;;5011554;28;20093;-49
2021/03/19 06:26:36;;;;;;;2.10;1.10;;;;;;;;;;5010727;28;20018;-52
2021/03/19 06:29:02;;;;;;;;;;;;;;;;;;5011795;28;20037;-52
2021/03/19 06:31:31;;;;;;;4.70;1.40;;;;;;;;;;5011043;28;20411;-51
2021/03/19 06:34:06;;;;;;;2.97;1.20;;;;;;;;;;5014746;28;20137;-48
2021/03/19 06:36:33;;;;;;;2.72;1.00;;;;;;;;;;5014304;28;20481;-51
2021/03/19 06:39:06;;;;;;;3.90;1.10;;;;;;;;;;5014914;28;20473;-48
2021/03/19 06:41:38;;;;;;;3.15;1.05;;;;;;;;;;5014071;28;20026;-49
2021/03/19 06:44:12;;;;;;;2.88;1.35;;;;;;;;;;5014555;28;20060;-49
2021/03/19 06:46:44;;;;;;;3.20;1.20;;;;;;;;;;5013686;28;20092;-49
2021/03/19 06:49:12;;;;;;;3.05;1.13;;;;;;;;;;5013998;28;20026;-47
2021/03/19 06:51:41;;;;;;;1.60;0.68;;;;;;;;;;5014099;28;20117;-52
2021/03/19 06:54:08;;;;;;;3.10;0.88;;;;;;;;;;5014383;28;20466;-50
2021/03/19 06:56:36;;;;;;;2.92;1.08;;;;;;;;;;5013710;28;20026;-48
2021/03/19 06:59:25;;;;;;;1.77;0.80;;;;;;;;;;5014514;28;20109;-53
2021/03/19 07:01:53;;;;;;;2.13;0.75;;;;;;;;;;5014185;28;20029;-51
2021/03/19 07:04:19;;;;;;;2.72;0.80;;;;;;;;;;5014195;28;20362;-54
2021/03/19 07:06:55;;;;;;;3.50;0.95;;;;;;;;;;5015031;28;20077;-55
2021/03/19 07:09:22;;;;;;;2.88;0.60;;;;;;;;;;5014600;28;20401;-54
2021/03/19 07:12:21;;;;;;;2.35;1.02;;;;;;;;;;5014261;28;20413;-56
2021/03/19 07:15:07;;;;;;;2.30;0.85;;;;;;;;;;4975678;28;20111;-54
2021/03/19 07:17:52;;;;;;;3.45;0.95;;;;;;;;;;4994739;28;20030;-51
2021/03/19 07:20:37;;;;;;;2.40;0.63;;;;;;;;;;4994251;28;20026;-51
2021/03/19 07:23:16;;;;;;;3.55;0.90;;;;;;;;;;4977437;28;20133;-52
2021/03/19 07:25:53;;;;;;;5.35;0.98;;;;;;;;;;4993963;28;20038;-51
2021/03/19 07:28:27;;;;;;;1.48;0.75;;;;;;;;;;4994286;28;20019;-50
2021/03/19 07:31:12;;;;;;;3.13;0.80;;;;;;;;;;4993823;28;20046;-52
2021/03/19 07:33:47;;;;;;;2.38;0.80;;;;;;;;;;4994360;28;20065;-48
2021/03/19 07:36:49;;;;;;;1.55;0.90;;;;;;;;;;4993647;28;20421;-50
2021/03/19 07:39:19;;;;;;;3.92;1.42;;;;;;;;;;4933843;29;20087;-50
2021/03/19 07:41:49;;;;;;;3.70;0.90;;;;;;;;;;4983856;28;20034;-49
2021/03/19 07:44:19;;;;;;;2.75;0.90;;;;;;;;;;4993124;28;20363;-50
2021/03/19 07:46:49;;;;;;;2.58;0.70;;;;;;;;;;4993262;28;20058;-54
2021/03/19 07:49:16;;;;;;;1.67;0.60;;;;;;;;;;4993888;28;20069;-52
2021/03/19 07:51:43;;;;;;;2.97;0.80;;;;;;;;;;4993755;28;20050;-49
2021/03/19 07:54:13;;;;;;;1.83;0.77;;;;;;;;;;4993273;28;20389;-51
2021/03/19 07:56:40;;;;;;;2.53;0.90;;;;;;;;;;4993450;28;20451;-49
2021/03/19 07:59:15;;;;;;;1.80;0.60;;;;;;;;;;4993217;28;20036;-51
2021/03/19 08:01:42;;;;;;;3.80;1.08;;;;;;;;;;4993756;28;20386;-52
2021/03/19 08:04:09;;;;;;;2.28;0.88;;;;;;;;;;4992707;28;20034;-50
2021/03/19 08:06:41;;;;;;;3.13;0.80;;;;;;;;;;4992952;28;20030;-51
2021/03/19 08:09:11;;;;;;;1.92;1.00;;;;;;;;;;4992965;28;20093;-49
2021/03/19 08:11:51;;;;;;;2.33;0.82;;;;;;;;;;4993339;28;20363;-51
2021/03/19 08:14:24;;;;;;;2.28;0.80;;;;;;;;;;4992200;28;20092;-53
2021/03/19 08:16:55;;;;;;;1.60;0.70;;;;;;;;;;4992739;28;20043;-50
2021/03/19 08:19:42;;;;;;;3.00;0.95;;;;;;;;;;4993383;28;20022;-50
2021/03/19 08:22:09;;;;;;;1.15;0.60;;;;;;;;;;4992731;28;20117;-50
2021/03/19 08:24:49;;;;;;;1.95;0.60;;;;;;;;;;4993395;28;20497;-50
2021/03/19 08:27:34;;;;;;;2.72;0.75;;;;;;;;;;4992612;28;20595;-49
2021/03/19 08:30:10;;;;;;;1.67;0.65;;;;;;;;;;4992556;28;20027;-46
2021/03/19 08:32:37;;;;;;;1.80;0.70;;;;;;;;;;4992738;28;20720;-50
2021/03/19 08:35:23;;;;;;;1.55;0.77;;;;;;;;;;4992714;28;20486;-50
2021/03/19 08:38:08;;;;;;;1.52;0.75;;;;;;;;;;4992419;28;20061;-50
2021/03/19 08:40:37;;;;;;;3.17;0.60;;;;;;;;;;4992240;28;20056;-49
2021/03/19 08:43:06;;;;;;;1.77;0.68;;;;;;;;;;4992678;28;20050;-50
2021/03/19 08:45:34;;;;;;;2.15;0.70;;;;;;;;;;4992766;28;20386;-50
2021/03/19 08:48:02;;;;;;;2.55;0.70;;;;;;;;;;4991873;28;20422;-51
2021/03/19 08:50:40;;;;;;;2.33;0.70;;;;;;;;;;4992139;28;20097;-50
2021/03/19 08:53:07;;;;;;;1.88;0.70;;;;;;;;;;4992100;28;20023;-48
2021/03/19 08:55:36;;;;;;;2.53;0.80;;;;;;;;;;4991931;28;20038;-55
2021/03/19 08:58:21;;;;;;;1.90;0.75;;;;;;;;;;4991872;28;20022;-50
2021/03/19 09:00:53;;;;;;;1.30;0.68;;;;;;;;;;4992491;28;20050;-48
2021/03/19 09:03:20;;;;;;;;;;;;;;;;;;4992375;28;20080;-50
2021/03/19 09:06:16;;;;;;;2.97;0.90;;;;;;;;;;4992290;28;19943;-47
2021/03/19 09:08:45;;;;;;;1.33;0.52;;;;;;;;;;4979324;28;20030;-50
2021/03/19 09:11:17;;;;;;;2.05;0.70;;;;;;;;;;4992267;28;20031;-50
2021/03/19 09:14:03;;;;;;;2.37;0.80;;;;;;;;;;4991674;28;20113;-47
2021/03/19 09:16:44;;;;;;;1.58;0.75;;;;;;;;;;4991943;28;20050;-48
2021/03/19 09:19:29;;;;;;;1.23;0.55;;;;;;;;;;4991873;28;20033;-49
2021/03/19 09:22:16;;;;;;;2.00;0.77;;;;;;;;;;4992084;28;20088;-49
2021/03/19 09:25:03;;;;;;;1.48;0.50;;;;;;;;;;4981519;28;20121;-53
2021/03/19 09:27:34;;;;;;;1.75;0.68;;;;;;;;;;4974323;28;20575;-51
2021/03/19 09:30:24;;;;;;;1.27;0.50;;;;;;;;;;4991721;28;20022;-49
2021/03/19 09:32:53;;;;;;;2.10;0.50;;;;;;;;;;4992135;28;20037;-54
2021/03/19 09:35:35;;;;;;;1.98;0.57;;;;;;;;;;4991727;28;20062;-51
2021/03/19 09:38:04;;;;;;;1.52;0.65;;;;;;;;;;4992054;28;20101;-53
2021/03/19 09:40:52;;;;;;;1.95;0.60;;;;;;;;;;4991406;28;20514;-52
2021/03/19 09:43:37;;;;;;;1.25;0.60;;;;;;;;;;4992116;28;20015;-52
2021/03/19 09:46:13;;;;;;;1.42;0.52;;;;;;;;;;4991199;28;20496;-51
2021/03/19 09:48:40;;;;;;;1.58;0.60;;;;;;;;;;4992083;28;20456;-52
2021/03/19 09:51:09;;;;;;;0.90;0.57;;;;;;;;;;4991470;28;20032;-50
2021/03/19 09:53:38;;;;;;;0.90;0.40;;;;;;;;;;4991926;28;20023;-52
2021/03/19 09:56:16;;;;;;;3.88;0.60;;;;;;;;;;4991399;28;20034;-52
2021/03/19 09:58:44;;;;;;;1.02;0.40;;;;;;;;;;4991827;28;20030;-53
2021/03/19 10:01:14;;;;;;;1.75;0.55;;;;;;;;;;4991461;28;20027;-51
2021/03/19 10:03:42;;;;;;;2.47;0.52;;;;;;;;;;4991886;28;20057;-52
2021/03/19 10:06:25;;;;;;;1.42;0.55;;;;;;;;;;4992060;28;20026;-52
2021/03/19 10:09:02;;;;;;;1.95;0.47;;;;;;;;;;4995319;28;20026;-50
2021/03/19 10:11:29;;;;;;;2.45;0.70;;;;;;;;;;4993605;28;20052;-50
2021/03/19 10:14:11;;;;;;;2.90;0.75;;;;;;;;;;4995426;28;20026;-52
2021/03/19 10:16:56;;;;;;;3.22;0.60;;;;;;;;;;4465992;22;21917;-55
2021/03/19 10:19:23;;;;;;;6.28;0.60;;;;;;;;;;4971643;28;20039;-55
2021/03/19 10:21:51;;;;;;;2.60;0.50;;;;;;;;;;4974172;28;20042;-49
2021/03/19 10:24:25;;;;;;;2.97;1.20;;;;;;;;;;4975346;28;20053;-58
2021/03/19 10:27:13;;;;;;;2.90;0.52;;;;;;;;;;4975399;28;20482;-53
2021/03/19 10:29:42;;;;;;;4.60;0.70;;;;;;;;;;4975275;28;20482;-50
2021/03/19 10:32:14;;;;;;;3.85;0.60;;;;;;;;;;4975207;28;20109;-51
2021/03/19 10:34:41;;;;;;;5.57;1.15;;;;;;;;;;4973164;28;20039;-53
2021/03/19 10:37:08;;;;;;;4.55;0.90;;;;;;;;;;4971058;28;20030;-55
2021/03/19 10:39:49;;;;;;;5.05;1.02;;;;;;;;;;4974621;28;20057;-54
2021/03/19 10:42:34;;;;;;;5.53;0.80;;;;;;;;;;4975655;28;20537;-52
2021/03/19 10:45:09;;;;;;;2.25;0.57;;;;;;;;;;4973443;28;20022;-51
2021/03/19 10:47:46;;;;;;;5.82;0.80;;;;;;;;;;4974707;28;21317;-52
2021/03/19 10:50:16;;;;;;;5.82;0.80;;;;;;;;;;4974385;28;20038;-54
2021/03/19 10:52:45;;;;;;;5.97;0.68;;;;;;;;;;4975117;28;20451;-55
2021/03/19 10:55:18;;;;;;;2.95;0.68;;;;;;;;;;4974292;28;20041;-56
2021/03/19 10:57:45;;;;;;;4.50;1.02;;;;;;;;;;4973859;28;20026;-53
2021/03/19 11:00:43;;;;;;;4.75;1.10;;;;;;;;;;4974591;28;20097;-50
2021/03/19 11:03:22;;;;;;;4.60;0.95;;;;;;;;;;4974726;28;20038;-51
2021/03/19 11:05:59;;;;;;;5.32;1.00;;;;;;;;;;4974074;28;20491;-50
2021/03/19 11:08:27;;;;;;;7.05;1.10;;;;;;;;;;4974970;28;20033;-49
2021/03/19 11:10:55;;;;;;;3.28;0.73;;;;;;;;;;4974450;28;20022;-50
2021/03/19 11:13:22;;;;;;;8.10;1.25;;;;;;;;;;4974014;28;20027;-48
2021/03/19 11:15:50;;;;;;;13.57;1.40;;;;;;;;;;4971457;28;20069;-47
2021/03/19 11:18:22;;;;;;;101.15;4.45;;;;;;;;;;4976291;28;20062;-50
2021/03/19 11:20:49;;;;;;;;;;;;;;;;;;4989589;28;20371;-49
2021/03/19 11:23:23;;;;;;;36.80;3.35;;;;;;;;;;4993946;28;19973;-50
2021/03/19 11:25:51;;;;;;;16.17;2.10;;;;;;;;;;4993499;28;20023;-50
2021/03/19 11:28:21;;;;;;;31.88;2.85;;;;;;;;;;4994100;28;20378;-51
2021/03/19 11:30:48;;;;;;;13.43;1.90;;;;;;;;;;4993433;28;20041;-47
2021/03/19 11:33:16;;;;;;;12.98;2.22;;;;;;;;;;4992251;28;20025;-52
2021/03/19 11:35:44;;;;;;;16.50;1.83;;;;;;;;;;4993220;28;20034;-51
2021/03/19 11:38:31;;;;;;;15.75;1.50;;;;;;;;;;4991345;28;20045;-49
2021/03/19 11:40:58;;;;;;;18.45;1.73;;;;;;;;;;4991958;28;20529;-47
2021/03/19 11:43:25;;;;;;;18.98;2.63;;;;;;;;;;4992903;28;20033;-43
2021/03/19 11:45:52;;;;;;;20.52;2.03;;;;;;;;;;4992868;28;20033;-44
2021/03/19 11:48:31;;;;;;;16.17;1.80;;;;;;;;;;4992877;28;20094;-43
2021/03/19 11:51:09;;;;;;;379.67;27.90;;;;;;;;;;4992476;28;20034;-44
2021/03/19 11:53:36;;;;;;;97.22;8.63;;;;;;;;;;4992932;28;20026;-43
2021/03/19 11:56:03;;;;;;;66.60;6.63;;;;;;;;;;4993009;28;20042;-44
2021/03/19 11:58:31;;;;;;;115.95;10.68;;;;;;;;;;4992969;28;20026;-43
2021/03/19 12:00:59;;;;;;;104.03;10.18;;;;;;;;;;4992553;28;20490;-43
2021/03/19 12:03:26;;;;;;;94.57;8.45;;;;;;;;;;4992583;28;20022;-45
2021/03/19 12:05:53;;;;;;;79.75;8.57;;;;;;;;;;4974886;28;21487;-44
2021/03/19 12:08:20;;;;;;;75.15;8.82;;;;;;;;;;4991016;28;20034;-45
2021/03/19 12:10:47;;;;;;;68.32;6.45;;;;;;;;;;4989350;28;20478;-48
2021/03/19 12:13:16;;;;;;;46.95;5.65;;;;;;;;;;4990789;28;20022;-46
2021/03/19 12:15:44;;;;;;;45.75;4.93;;;;;;;;;;4988416;28;20498;-49
2021/03/19 12:18:13;;;;;;;33.30;4.20;;;;;;;;;;4991909;28;20122;-59
2021/03/19 12:20:40;;;;;;;22.45;3.50;;;;;;;;;;4974414;28;20031;-49
2021/03/19 12:23:07;;;;;;;18.60;1.85;;;;;;;;;;4993205;28;20433;-49
2021/03/19 12:25:36;;;;;;;18.85;2.90;;;;;;;;;;4992794;28;20351;-48
2021/03/19 12:28:04;;;;;;;22.52;2.08;;;;;;;;;;4992302;28;20040;-54
2021/03/19 12:30:31;;;;;;;17.42;2.25;;;;;;;;;;4992765;28;20026;-45
2021/03/19 12:32:58;;;;;;;24.77;2.47;;;;;;;;;;4991822;28;20022;-46
2021/03/19 12:35:28;;;;;;;16.70;1.90;;;;;;;;;;4972312;28;20030;-47
2021/03/19 12:37:55;;;;;;;16.55;2.08;;;;;;;;;;4992149;28;20031;-49
2021/03/19 12:40:23;;;;;;;14.93;1.98;;;;;;;;;;4992367;28;20022;-45
2021/03/19 12:42:51;;;;;;;12.98;1.77;;;;;;;;;;4992091;28;20023;-47
2021/03/19 12:45:19;;;;;;;14.55;1.90;;;;;;;;;;4992497;28;20015;-53
2021/03/19 12:47:46;;;;;;;14.80;1.98;;;;;;;;;;4991869;28;20018;-44
2021/03/19 12:50:13;;;;;;;19.77;2.05;;;;;;;;;;4992521;28;20025;-50
2021/03/19 12:52:40;;;;;;;20.65;1.98;;;;;;;;;;4991907;28;20508;-52
2021/03/19 12:55:08;;;;;;;15.10;1.92;;;;;;;;;;4992157;28;20048;-49
2021/03/19 12:57:35;;;;;;;14.73;1.58;;;;;;;;;;4990823;28;20605;-62
2021/03/19 13:00:02;;;;;;;12.65;1.58;;;;;;;;;;4974069;28;20113;-64
2021/03/19 13:02:29;;;;;;;16.17;1.67;;;;;;;;;;4985000;28;20034;-63
2021/03/19 13:04:56;;;;;;;20.77;1.67;;;;;;;;;;4971091;28;20027;-61
2021/03/19 13:07:23;;;;;;;19.83;1.90;;;;;;;;;;4984357;28;20027;-60
2021/03/19 13:09:50;;;;;;;23.25;1.90;;;;;;;;;;4990823;28;20137;-55
2021/03/19 13:12:17;;;;;;;13.10;1.95;;;;;;;;;;4991669;28;20033;-56
2021/03/19 13:14:44;;;;;;;11.80;1.60;;;;;;;;;;4991471;28;20038;-63
2021/03/19 13:17:11;;;;;;;14.43;1.70;;;;;;;;;;4991903;28;21451;-61
2021/03/19 13:19:38;;;;;;;16.00;1.85;;;;;;;;;;4991940;28;20037;-63
2021/03/19 13:22:05;;;;;;;11.52;1.60;;;;;;;;;;4992004;28;20490;-60
2021/03/19 13:24:32;;;;;;;9.18;2.33;;;;;;;;;;4991812;28;20054;-49
2021/03/19 13:27:00;;;;;;;25.17;2.15;;;;;;;;;;4992072;28;20524;-60
2021/03/19 13:29:27;;;;;;;19.30;1.98;;;;;;;;;;4991919;28;20033;-57
2021/03/19 13:31:54;;;;;;;22.13;2.00;;;;;;;;;;4991319;28;20022;-60
2021/03/19 13:34:21;;;;;;;9.85;1.70;;;;;;;;;;4992049;28;20317;-50
2021/03/19 13:36:48;;;;;;;23.13;1.85;;;;;;;;;;4991905;28;20022;-49
2021/03/19 13:39:15;;;;;;;11.90;1.75;;;;;;;;;;4992160;28;20034;-51
2021/03/19 13:41:42;;;;;;;10.18;1.70;;;;;;;;;;4993588;28;20049;-56
2021/03/19 13:44:09;;;;;;;7.05;1.85;;;;;;;;;;4978787;28;21064;-48
2021/03/19 13:46:36;;;;;;;11.63;1.92;;;;;;;;;;4995525;28;20026;-50
2021/03/19 13:49:04;;;;;;;13.85;2.17;;;;;;;;;;4995859;28;20022;-57
2021/03/19 13:51:31;;;;;;;14.30;2.20;;;;;;;;;;4994917;28;20037;-49
2021/03/19 13:53:58;;;;;;;10.77;1.60;;;;;;;;;;4995597;28;20394;-56
2021/03/19 13:56:26;;;;;;;12.90;1.92;;;;;;;;;;4995757;28;20110;-52
2021/03/19 13:58:54;;;;;;;11.65;2.35;;;;;;;;;;4995373;28;20014;-51
2021/03/19 14:01:22;;;;;;;11.93;1.75;;;;;;;;;;4995937;28;20069;-52
2021/03/19 14:03:49;;;;;;;12.27;1.77;;;;;;;;;;4994941;28;20026;-56
2021/03/19 14:06:20;;;;;;;15.73;2.08;;;;;;;;;;4995537;28;20160;-48
2021/03/19 14:08:47;;;;;;;10.52;2.17;;;;;;;;;;4977532;28;20449;-50
2021/03/19 14:11:14;;;;;;;17.80;1.88;;;;;;;;;;4978221;28;20117;-48
2021/03/19 14:13:42;;;;;;;9.82;1.85;;;;;;;;;;4994733;28;20027;-48
2021/03/19 14:16:11;;;;;;;15.88;1.80;;;;;;;;;;4994061;28;20078;-55
2021/03/19 14:18:38;;;;;;;17.20;2.40;;;;;;;;;;4992751;28;20501;-53
2021/03/19 14:21:06;;;;;;;16.70;2.25;;;;;;;;;;4994245;28;20027;-49
2021/03/19 14:23:33;;;;;;;10.13;2.00;;;;;;;;;;4976954;28;20054;-54
2021/03/19 14:26:03;;;;;;;11.40;2.30;;;;;;;;;;4995296;28;20097;-48
2021/03/19 14:28:32;;;;;;;15.93;1.95;;;;;;;;;;4994248;28;20022;-51
2021/03/19 14:30:59;;;;;;;8.88;1.40;;;;;;;;;;4994750;28;20019;-49
2021/03/19 14:33:26;;;;;;;16.70;2.78;;;;;;;;;;4994923;28;20058;-48
2021/03/19 14:35:53;;;;;;;13.68;1.80;;;;;;;;;;4994006;28;20504;-52
2021/03/19 14:38:21;;;;;;;12.85;1.52;;;;;;;;;;4994423;28;20082;-56
2021/03/19 14:40:50;;;;;;;8.35;1.70;;;;;;;;;;4993804;28;20027;-53
2021/03/19 14:43:17;;;;;;;14.05;1.90;;;;;;;;;;4994364;28;20035;-50
2021/03/19 14:45:44;;;;;;;16.08;2.20;;;;;;;;;;4994129;28;20072;-47
2021/03/19 14:48:11;;;;;;;11.23;1.95;;;;;;;;;;4994741;28;20022;-52
2021/03/19 14:50:39;;;;;;;17.17;1.90;;;;;;;;;;4993385;28;20021;-56
2021/03/19 14:53:08;;;;;;;21.50;2.55;;;;;;;;;;4993342;28;20370;-57
2021/03/19 14:55:35;;;;;;;12.15;2.08;;;;;;;;;;4993841;28;20034;-49
2021/03/19 14:58:03;;;;;;;12.02;2.22;;;;;;;;;;4993575;28;20032;-51
2021/03/19 15:00:35;;;;;;;11.00;1.73;;;;;;;;;;4993826;28;20030;-50
2021/03/19 15:03:02;;;;;;;14.20;2.35;;;;;;;;;;4993141;28;20049;-51